EZY64JW EGCC-EKCH
Flight info
| Callsign | EZY64JW |
|---|---|
| Flight time | N/A |
| Altitude | 37000 |
| Route | DESIG L603 LAMIX UT29 LIBSO UL975 ERDOW DCT ROPAL DCT LESRA DCT TESPI |
| Aircraft | A320/M-SDE3FGHIRWY/LB1 |
Departure
| Time | 2026-05-04 06:15 |
|---|---|
| Airport | Manchester Airport (EGCC) |
Arrival
| Time | N/A |
|---|---|
| Airport | Copenhagen Kastrup Airport (EKCH) |
| Time | Latitude | Longitude | Altitude | Speed | Heading |
|---|---|---|---|---|---|
| 2026-05-04 05:57 | 53.36462 | -2.27766 | 245 ft | 0 kts | 45° |
| 2026-05-04 06:05 | 53.36418 | -2.27836 | 244 ft | 3 kts | 32° |
| 2026-05-04 06:05 | 53.36383 | -2.27852 | 244 ft | 2 kts | 326° |
| 2026-05-04 06:05 | 53.36374 | -2.27841 | 244 ft | 2 kts | 315° |
| 2026-05-04 06:06 | 53.36365 | -2.27826 | 244 ft | 1 kts | 315° |
| 2026-05-04 06:06 | 53.36365 | -2.27825 | 244 ft | 0 kts | 315° |
| 2026-05-04 06:08 | 53.36376 | -2.27843 | 244 ft | 8 kts | 315° |
| 2026-05-04 06:08 | 53.36371 | -2.27973 | 243 ft | 16 kts | 228° |
| 2026-05-04 06:09 | 53.36255 | -2.28073 | 242 ft | 11 kts | 190° |
| 2026-05-04 06:09 | 53.36181 | -2.28062 | 241 ft | 6 kts | 147° |
| 2026-05-04 06:11 | 53.35725 | -2.27876 | 239 ft | 13 kts | 185° |
| 2026-05-04 06:11 | 53.35630 | -2.27901 | 238 ft | 13 kts | 204° |
| 2026-05-04 06:13 | 53.35070 | -2.28637 | 227 ft | 18 kts | 231° |
| 2026-05-04 06:14 | 53.34731 | -2.28823 | 221 ft | 33 kts | 51° |
| 2026-05-04 06:14 | 53.35036 | -2.28193 | 230 ft | 103 kts | 51° |
| 2026-05-04 06:15 | 53.35605 | -2.27014 | 247 ft | 156 kts | 51° |
| 2026-05-04 06:15 | 53.36305 | -2.25536 | 727 ft | 161 kts | 52° |
| 2026-05-04 06:15 | 53.37002 | -2.24061 | 1459 ft | 162 kts | 52° |
| 2026-05-04 06:15 | 53.37727 | -2.22533 | 1912 ft | 177 kts | 52° |
| 2026-05-04 06:16 | 53.38541 | -2.20818 | 2201 ft | 200 kts | 52° |
| 2026-05-04 06:16 | 53.39459 | -2.18881 | 2555 ft | 224 kts | 51° |
| 2026-05-04 06:16 | 53.40478 | -2.16733 | 2982 ft | 246 kts | 51° |
| 2026-05-04 06:16 | 53.41564 | -2.14440 | 3725 ft | 255 kts | 51° |
| 2026-05-04 06:17 | 53.42675 | -2.12089 | 4599 ft | 259 kts | 51° |
| 2026-05-04 06:17 | 53.43799 | -2.09699 | 5459 ft | 263 kts | 51° |
| 2026-05-04 06:17 | 53.44939 | -2.07261 | 6282 ft | 268 kts | 51° |
| 2026-05-04 06:17 | 53.46089 | -2.04801 | 7030 ft | 274 kts | 51° |
| 2026-05-04 06:18 | 53.47278 | -2.02261 | 7793 ft | 279 kts | 51° |
| 2026-05-04 06:18 | 53.48491 | -1.99674 | 8573 ft | 284 kts | 51° |
| 2026-05-04 06:18 | 53.49731 | -1.97046 | 9364 ft | 289 kts | 50° |
| 2026-05-04 06:20 | 53.49561 | -1.72224 | 13310 ft | 358 kts | 106° |
| 2026-05-04 06:20 | 53.48902 | -1.68167 | 13977 ft | 362 kts | 105° |
| 2026-05-04 06:21 | 53.46098 | -1.51699 | 16459 ft | 374 kts | 107° |
| 2026-05-04 06:21 | 53.45347 | -1.47508 | 17058 ft | 376 kts | 107° |
| 2026-05-04 06:22 | 53.44585 | -1.43291 | 17677 ft | 379 kts | 108° |
| 2026-05-04 06:22 | 53.43814 | -1.39047 | 18294 ft | 382 kts | 108° |
| 2026-05-04 06:25 | 53.33285 | -0.81546 | 24667 ft | 415 kts | 107° |
| 2026-05-04 06:25 | 53.32448 | -0.76910 | 25024 ft | 418 kts | 104° |